Lontzen, Belgium
Current Conditions -  °F | °C
As of 1:09 AM on Saturday 01 Nov 2014 (Local Time) from EBLB Reporting Station
Clear Clear  
Wind Chill:   Ceiling: Unl
Heat Index:   Visibility: 0.81mi
Dew Point:   Wind: 3mph
Humidity: 100%   Direction: 240°WSW
Pressure: 30.21"   Gusts: NA
Location:  50.68°N, 6.01°E
Report Text: EBLB 010009Z AUTO 24003KT 1300 NCD 08/08 Q1023 AMB
Loading
Personal Weather Stations






























Interactive Weather Map
Tropical Storm Tracking
New forecast layout! Learn more

10-Day Weather Forecast

Advertisements
Track Severe Weather on mobile